createdAt,value
2024-03-19T00:00:39.491Z,889.00
2024-03-19T00:01:43.418Z,886.00
2024-03-19T00:02:39.602Z,884.00
2024-03-19T00:03:39.608Z,887.00
2024-03-19T00:04:39.614Z,885.00
2024-03-19T00:05:39.626Z,882.00
2024-03-19T00:06:39.612Z,882.00
2024-03-19T00:07:39.636Z,883.00
2024-03-19T00:08:39.606Z,882.00
2024-03-19T00:09:39.626Z,881.00
2024-03-19T00:10:39.625Z,880.00
2024-03-19T00:11:39.617Z,880.00
2024-03-19T00:12:39.622Z,883.00
2024-03-19T00:13:39.631Z,884.00
2024-03-19T00:14:39.634Z,882.00
2024-03-19T00:15:39.648Z,883.00
2024-03-19T00:16:39.653Z,884.00
2024-03-19T00:17:39.669Z,882.00
2024-03-19T00:18:39.671Z,880.00
2024-03-19T00:19:39.666Z,877.00
2024-03-19T00:20:39.681Z,876.00
2024-03-19T00:21:39.683Z,874.00
2024-03-19T00:22:39.681Z,871.00
2024-03-19T00:23:39.702Z,870.00
2024-03-19T00:24:39.699Z,868.00
2024-03-19T00:25:39.705Z,867.00
2024-03-19T00:26:39.707Z,867.00
2024-03-19T00:27:39.681Z,867.00
2024-03-19T00:28:39.674Z,866.00
2024-03-19T00:29:39.698Z,866.00
2024-03-19T00:30:39.778Z,865.00
2024-03-19T00:31:39.900Z,863.00
2024-03-19T00:32:39.995Z,862.00
2024-03-19T00:33:40.090Z,865.00
2024-03-19T00:34:40.212Z,863.00
2024-03-19T00:35:40.326Z,862.00
2024-03-19T00:36:40.442Z,863.00
2024-03-19T00:37:40.560Z,860.00
2024-03-19T00:38:40.659Z,857.00
2024-03-19T00:39:40.773Z,855.00
2024-03-19T00:40:40.879Z,854.00
2024-03-19T00:41:40.993Z,856.00
2024-03-19T00:42:41.102Z,858.00
2024-03-19T00:43:41.212Z,855.00
2024-03-19T00:44:41.333Z,854.00
2024-03-19T00:45:41.479Z,854.00
2024-03-19T00:46:41.555Z,854.00
2024-03-19T00:47:41.698Z,855.00
2024-03-19T00:48:41.809Z,853.00
2024-03-19T00:49:41.926Z,851.00
2024-03-19T00:50:42.023Z,847.00
2024-03-19T00:51:42.135Z,849.00
2024-03-19T00:52:42.245Z,851.00
2024-03-19T00:53:42.362Z,852.00
2024-03-19T00:54:42.454Z,852.00
2024-03-19T00:55:42.576Z,852.00
2024-03-19T00:56:42.683Z,854.00
2024-03-19T00:57:42.785Z,854.00
2024-03-19T00:58:42.904Z,855.00
2024-03-19T00:59:43.016Z,854.00
2024-03-19T01:00:43.149Z,857.00
2024-03-19T01:01:43.239Z,856.00
2024-03-19T01:02:43.340Z,854.00
2024-03-19T01:03:43.455Z,853.00
2024-03-19T01:04:44.586Z,857.00
2024-03-19T01:05:43.685Z,855.00
2024-03-19T01:06:43.803Z,853.00
2024-03-19T01:07:43.923Z,853.00
2024-03-19T01:08:44.032Z,853.00
2024-03-19T01:09:44.160Z,853.00
2024-03-19T01:10:44.249Z,853.00
2024-03-19T01:11:44.390Z,854.00
2024-03-19T01:12:44.475Z,852.00
2024-03-19T01:13:44.586Z,850.00
2024-03-19T01:14:44.682Z,853.00
2024-03-19T01:15:44.820Z,854.00
2024-03-19T01:16:44.921Z,850.00
2024-03-19T01:17:45.025Z,852.00
2024-03-19T01:18:45.187Z,850.00
2024-03-19T01:19:45.290Z,852.00
2024-03-19T01:20:45.374Z,851.00
2024-03-19T01:21:45.507Z,850.00
2024-03-19T01:22:45.636Z,849.00
2024-03-19T01:23:45.741Z,846.00
2024-03-19T01:24:45.849Z,845.00
2024-03-19T01:25:45.953Z,843.00
2024-03-19T01:26:46.063Z,845.00
2024-03-19T01:27:46.169Z,848.00
2024-03-19T01:28:46.288Z,848.00
2024-03-19T01:29:46.394Z,847.00
2024-03-19T01:30:46.505Z,848.00
2024-03-19T01:31:46.615Z,844.00
2024-03-19T01:32:46.720Z,839.00
2024-03-19T01:33:46.859Z,837.00
2024-03-19T01:34:46.979Z,839.00
2024-03-19T01:35:47.065Z,836.00
2024-03-19T01:36:47.153Z,836.00
2024-03-19T01:37:47.372Z,837.00
2024-03-19T01:38:47.403Z,835.00
2024-03-19T01:39:47.517Z,832.00
2024-03-19T01:40:47.624Z,834.00
2024-03-19T01:41:47.752Z,835.00
2024-03-19T01:42:47.851Z,832.00
2024-03-19T01:43:47.963Z,835.00
2024-03-19T01:44:48.076Z,835.00
2024-03-19T01:45:48.212Z,834.00
2024-03-19T01:46:48.286Z,833.00
2024-03-19T01:47:48.399Z,833.00
2024-03-19T01:48:48.509Z,832.00
2024-03-19T01:49:48.620Z,831.00
2024-03-19T01:50:48.724Z,827.00
2024-03-19T01:51:48.864Z,826.00
2024-03-19T01:52:48.957Z,825.00
2024-03-19T01:53:49.090Z,824.00
2024-03-19T01:54:49.181Z,825.00
2024-03-19T01:55:49.304Z,829.00
2024-03-19T01:56:49.444Z,832.00
2024-03-19T01:57:49.549Z,833.00
2024-03-19T01:58:49.621Z,832.00
2024-03-19T01:59:49.747Z,829.00
2024-03-19T02:00:49.852Z,828.00
2024-03-19T02:01:49.959Z,824.00
2024-03-19T02:02:50.080Z,825.00
2024-03-19T02:03:50.179Z,823.00
2024-03-19T02:04:50.290Z,822.00
2024-03-19T02:05:50.392Z,821.00
2024-03-19T02:06:50.484Z,819.00
2024-03-19T02:07:50.613Z,819.00
2024-03-19T02:08:50.691Z,820.00
2024-03-19T02:09:50.834Z,822.00
2024-03-19T02:10:50.919Z,825.00
2024-03-19T02:11:51.037Z,823.00
2024-03-19T02:12:51.139Z,820.00
2024-03-19T02:13:51.304Z,823.00
2024-03-19T02:14:51.408Z,821.00
2024-03-19T02:15:51.523Z,821.00
2024-03-19T02:16:51.640Z,818.00
2024-03-19T02:17:51.744Z,816.00
2024-03-19T02:18:51.857Z,815.00
2024-03-19T02:19:52.087Z,816.00
2024-03-19T02:20:52.070Z,815.00
2024-03-19T02:21:52.205Z,815.00
2024-03-19T02:22:52.317Z,813.00
2024-03-19T02:23:52.461Z,811.00
2024-03-19T02:24:52.536Z,810.00
2024-03-19T02:25:52.650Z,811.00
2024-03-19T02:26:52.771Z,813.00
2024-03-19T02:27:52.875Z,816.00
2024-03-19T02:28:52.983Z,816.00
2024-03-19T02:29:53.086Z,814.00
2024-03-19T02:30:53.728Z,812.00
2024-03-19T02:31:53.306Z,810.00
2024-03-19T02:32:53.385Z,810.00
2024-03-19T02:33:53.498Z,810.00
2024-03-19T02:34:53.597Z,813.00
2024-03-19T02:35:53.712Z,816.00
2024-03-19T02:36:53.804Z,816.00
2024-03-19T02:37:53.924Z,814.00
2024-03-19T02:38:54.039Z,814.00
2024-03-19T02:39:54.162Z,814.00
2024-03-19T02:40:59.260Z,814.00
2024-03-19T02:41:54.264Z,815.00
2024-03-19T02:42:54.254Z,815.00
2024-03-19T02:43:54.258Z,814.00
2024-03-19T02:44:54.272Z,812.00
2024-03-19T02:45:54.272Z,814.00
2024-03-19T02:46:54.257Z,813.00
2024-03-19T02:47:54.294Z,811.00
2024-03-19T02:48:54.354Z,808.00
2024-03-19T02:49:54.476Z,809.00
2024-03-19T02:50:54.585Z,807.00
2024-03-19T02:51:54.732Z,807.00
2024-03-19T02:52:54.835Z,802.00
2024-03-19T02:53:54.968Z,803.00
2024-03-19T02:54:55.042Z,802.00
2024-03-19T02:55:55.147Z,803.00
2024-03-19T02:56:55.246Z,804.00
2024-03-19T02:57:55.357Z,805.00
2024-03-19T02:58:55.465Z,805.00
2024-03-19T02:59:55.587Z,806.00
2024-03-19T03:00:55.687Z,807.00
2024-03-19T03:01:55.764Z,810.00
2024-03-19T03:02:55.859Z,807.00
2024-03-19T03:03:55.962Z,806.00
2024-03-19T03:04:56.084Z,804.00
2024-03-19T03:05:56.202Z,801.00
2024-03-19T03:06:56.296Z,801.00
2024-03-19T03:07:56.406Z,800.00
2024-03-19T03:08:56.516Z,802.00
2024-03-19T03:09:56.641Z,804.00
2024-03-19T03:10:56.739Z,805.00
2024-03-19T03:11:56.857Z,810.00
2024-03-19T03:12:56.966Z,812.00
2024-03-19T03:13:57.077Z,815.00
2024-03-19T03:14:57.180Z,814.00
2024-03-19T03:15:57.282Z,817.00
2024-03-19T03:16:57.390Z,820.00
2024-03-19T03:17:57.587Z,819.00
2024-03-19T03:18:57.607Z,820.00
2024-03-19T03:19:57.694Z,820.00
2024-03-19T03:20:57.773Z,820.00
2024-03-19T03:21:57.877Z,822.00
2024-03-19T03:22:57.951Z,821.00
2024-03-19T03:23:58.040Z,821.00
2024-03-19T03:24:58.127Z,820.00
2024-03-19T03:25:58.208Z,818.00
2024-03-19T03:27:05.838Z,838.00
2024-03-19T03:28:05.840Z,829.00
2024-03-19T03:29:05.835Z,825.00
2024-03-19T03:30:05.840Z,824.00
2024-03-19T03:31:05.824Z,823.00
2024-03-19T03:32:05.851Z,821.00
2024-03-19T03:33:05.850Z,823.00
2024-03-19T03:34:05.844Z,824.00
2024-03-19T03:35:05.842Z,822.00
2024-03-19T03:36:05.848Z,819.00
2024-03-19T03:37:11.964Z,820.00
2024-03-19T03:38:06.851Z,819.00
2024-03-19T03:39:05.841Z,818.00
2024-03-19T03:40:05.864Z,818.00
2024-03-19T03:41:05.854Z,817.00
2024-03-19T03:42:05.870Z,820.00
2024-03-19T03:43:07.025Z,817.00
2024-03-19T03:44:05.864Z,816.00
2024-03-19T03:45:05.862Z,816.00
2024-03-19T03:46:05.854Z,814.00
2024-03-19T03:47:05.857Z,813.00
2024-03-19T03:48:05.877Z,812.00
2024-03-19T03:49:05.955Z,812.00
2024-03-19T03:50:05.892Z,811.00
2024-03-19T03:51:05.889Z,810.00
2024-03-19T03:52:05.910Z,808.00
2024-03-19T03:53:05.902Z,808.00
2024-03-19T03:54:05.905Z,807.00
2024-03-19T03:55:05.904Z,802.00
2024-03-19T03:56:05.890Z,802.00
2024-03-19T03:57:05.890Z,803.00
2024-03-19T03:58:05.898Z,802.00
2024-03-19T03:59:05.896Z,803.00
2024-03-19T04:00:05.885Z,803.00
2024-03-19T04:01:05.893Z,803.00
2024-03-19T04:02:05.883Z,804.00
2024-03-19T04:03:05.896Z,803.00
2024-03-19T04:04:05.880Z,806.00
2024-03-19T04:05:05.889Z,805.00
2024-03-19T04:06:05.886Z,800.00
2024-03-19T04:07:05.896Z,801.00
2024-03-19T04:08:07.901Z,802.00
2024-03-19T04:09:05.909Z,802.00
2024-03-19T04:10:05.883Z,799.00
2024-03-19T04:11:05.908Z,801.00
2024-03-19T04:12:05.915Z,802.00
2024-03-19T04:13:05.894Z,802.00
2024-03-19T04:14:05.896Z,803.00
2024-03-19T04:15:05.912Z,802.00
2024-03-19T04:16:05.900Z,803.00
2024-03-19T04:17:05.973Z,800.00
2024-03-19T04:18:05.907Z,804.00
2024-03-19T04:19:05.900Z,802.00
2024-03-19T04:20:05.904Z,799.00
2024-03-19T04:21:05.898Z,799.00
2024-03-19T04:22:05.886Z,800.00
2024-03-19T04:23:05.995Z,802.00
2024-03-19T04:24:05.902Z,800.00
2024-03-19T04:25:05.909Z,799.00
2024-03-19T04:26:05.913Z,794.00
2024-03-19T04:27:05.920Z,793.00
2024-03-19T04:28:05.948Z,793.00
2024-03-19T04:29:05.970Z,800.00
2024-03-19T04:30:05.953Z,803.00
2024-03-19T04:31:05.979Z,799.00
2024-03-19T04:32:05.960Z,796.00
2024-03-19T04:33:05.968Z,796.00
2024-03-19T04:34:05.965Z,794.00
2024-03-19T04:35:05.981Z,792.00
2024-03-19T04:36:05.981Z,791.00
2024-03-19T04:37:05.974Z,793.00
2024-03-19T04:38:05.960Z,794.00
2024-03-19T04:39:05.970Z,794.00
2024-03-19T04:40:05.978Z,794.00
2024-03-19T04:41:05.973Z,796.00
2024-03-19T04:42:05.979Z,797.00
2024-03-19T04:43:05.983Z,800.00
2024-03-19T04:44:06.144Z,798.00
2024-03-19T04:45:06.146Z,798.00
2024-03-19T04:46:06.265Z,794.00
2024-03-19T04:47:06.370Z,796.00
2024-03-19T04:48:06.430Z,796.00
2024-03-19T04:49:06.537Z,795.00
2024-03-19T04:50:06.657Z,794.00
2024-03-19T04:51:06.747Z,793.00
2024-03-19T04:52:10.590Z,789.00
2024-03-19T04:53:06.832Z,789.00
2024-03-19T04:54:06.819Z,788.00
2024-03-19T04:55:06.874Z,795.00
2024-03-19T04:56:06.841Z,789.00
2024-03-19T04:57:06.839Z,786.00
2024-03-19T04:58:06.854Z,789.00
2024-03-19T04:59:06.907Z,790.00
2024-03-19T05:00:06.860Z,792.00
2024-03-19T05:01:06.834Z,789.00
2024-03-19T05:02:06.840Z,789.00
2024-03-19T05:03:06.868Z,786.00
2024-03-19T05:04:51.798Z,788.00
2024-03-19T05:05:51.802Z,781.00
2024-03-19T05:06:51.809Z,779.00
2024-03-19T05:07:51.777Z,778.00
2024-03-19T05:08:51.822Z,777.00
2024-03-19T05:09:51.822Z,774.00
2024-03-19T05:10:51.831Z,771.00
2024-03-19T05:11:51.824Z,765.00
2024-03-19T05:12:51.813Z,769.00
2024-03-19T05:13:51.857Z,768.00
2024-03-19T05:14:51.919Z,770.00
2024-03-19T05:15:52.018Z,771.00
2024-03-19T05:16:52.122Z,771.00
2024-03-19T05:17:52.193Z,770.00
2024-03-19T05:18:52.297Z,771.00
2024-03-19T05:19:52.390Z,773.00
2024-03-19T05:20:52.462Z,777.00
2024-03-19T05:21:52.574Z,776.00
2024-03-19T05:22:52.633Z,776.00
2024-03-19T05:23:52.723Z,775.00
2024-03-19T05:24:52.808Z,775.00
2024-03-19T05:25:52.909Z,772.00
2024-03-19T05:26:52.990Z,772.00
2024-03-19T05:27:53.073Z,771.00
2024-03-19T05:28:53.169Z,771.00
2024-03-19T05:29:53.250Z,774.00
2024-03-19T05:30:53.349Z,772.00
2024-03-19T05:31:53.457Z,772.00
2024-03-19T05:32:53.556Z,770.00
2024-03-19T05:33:53.620Z,768.00
2024-03-19T05:34:55.528Z,769.00
2024-03-19T05:35:53.710Z,768.00
2024-03-19T05:36:53.710Z,768.00
2024-03-19T05:37:53.751Z,768.00
2024-03-19T05:38:53.769Z,765.00
2024-03-19T05:39:53.817Z,765.00
2024-03-19T05:40:53.848Z,766.00
2024-03-19T05:41:53.965Z,767.00
2024-03-19T05:42:54.056Z,767.00
2024-03-19T05:43:57.060Z,767.00
2024-03-19T05:44:54.113Z,767.00
2024-03-19T05:45:54.101Z,766.00
2024-03-19T05:46:54.122Z,768.00
2024-03-19T05:47:54.124Z,769.00
2024-03-19T05:48:54.104Z,767.00
2024-03-19T05:49:54.095Z,764.00
2024-03-19T05:50:54.100Z,761.00
2024-03-19T05:51:54.105Z,762.00
2024-03-19T05:52:54.110Z,762.00
2024-03-19T05:53:54.117Z,760.00
2024-03-19T05:54:54.173Z,759.00
2024-03-19T05:55:54.126Z,759.00
2024-03-19T05:56:54.102Z,760.00
2024-03-19T05:57:54.103Z,763.00
2024-03-19T05:58:54.163Z,763.00
2024-03-19T05:59:54.114Z,763.00
2024-03-19T06:00:54.113Z,760.00
2024-03-19T06:01:54.122Z,758.00
2024-03-19T06:02:54.131Z,756.00
2024-03-19T06:03:54.132Z,756.00
2024-03-19T06:04:54.136Z,757.00
2024-03-19T06:05:54.106Z,757.00
2024-03-19T06:06:54.121Z,755.00
2024-03-19T06:07:54.107Z,752.00
2024-03-19T06:08:54.118Z,754.00
2024-03-19T06:09:54.123Z,753.00
2024-03-19T06:10:54.130Z,752.00
2024-03-19T06:11:54.127Z,751.00
2024-03-19T06:12:54.118Z,749.00
2024-03-19T06:13:54.137Z,751.00
2024-03-19T06:14:54.121Z,753.00
2024-03-19T06:15:54.114Z,751.00
2024-03-19T06:16:54.169Z,751.00
2024-03-19T06:17:54.226Z,752.00
2024-03-19T06:18:54.327Z,752.00
2024-03-19T06:19:54.393Z,753.00
2024-03-19T06:20:54.504Z,751.00
2024-03-19T06:21:54.606Z,749.00
2024-03-19T06:22:54.693Z,748.00
2024-03-19T06:23:54.791Z,745.00
2024-03-19T06:24:54.882Z,744.00
2024-03-19T06:25:54.966Z,741.00
2024-03-19T06:26:55.057Z,742.00
2024-03-19T06:27:55.148Z,740.00
2024-03-19T06:28:55.236Z,737.00
2024-03-19T06:29:55.332Z,739.00
2024-03-19T06:30:55.445Z,739.00
2024-03-19T06:31:55.508Z,738.00
2024-03-19T06:32:55.623Z,735.00
2024-03-19T06:33:55.719Z,733.00
2024-03-19T06:34:55.813Z,734.00
2024-03-19T06:35:55.913Z,732.00
2024-03-19T06:36:55.995Z,737.00
2024-03-19T06:37:56.071Z,738.00
2024-03-19T06:38:56.169Z,740.00
2024-03-19T06:39:56.253Z,739.00
2024-03-19T06:40:56.350Z,738.00
2024-03-19T06:41:56.436Z,735.00
2024-03-19T06:42:56.544Z,734.00
2024-03-19T06:43:56.610Z,733.00
2024-03-19T06:44:56.736Z,734.00
2024-03-19T06:45:56.795Z,734.00
2024-03-19T06:46:58.369Z,734.00
2024-03-19T06:47:56.939Z,732.00
2024-03-19T06:48:56.993Z,733.00
2024-03-19T06:49:57.057Z,733.00
2024-03-19T06:50:57.025Z,735.00
2024-03-19T06:51:57.051Z,735.00
2024-03-19T06:52:57.078Z,736.00
2024-03-19T06:53:57.284Z,733.00
2024-03-19T06:54:59.168Z,733.00
2024-03-19T06:55:57.245Z,734.00
2024-03-19T06:56:57.255Z,733.00
2024-03-19T06:57:57.357Z,733.00
2024-03-19T06:58:57.287Z,730.00
2024-03-19T06:59:57.279Z,729.00
2024-03-19T07:00:57.280Z,732.00
2024-03-19T07:01:57.262Z,732.00
2024-03-19T07:02:58.286Z,732.00
2024-03-19T07:04:06.699Z,730.00
2024-03-19T07:04:58.286Z,732.00
2024-03-19T07:05:57.269Z,735.00
2024-03-19T07:06:57.275Z,734.00
2024-03-19T07:07:57.281Z,733.00
2024-03-19T07:08:57.295Z,733.00
2024-03-19T07:09:57.320Z,733.00
2024-03-19T07:10:57.285Z,731.00
2024-03-19T07:11:57.280Z,729.00
2024-03-19T07:12:57.285Z,727.00
2024-03-19T07:13:57.284Z,725.00
2024-03-19T07:14:57.284Z,726.00
2024-03-19T07:15:57.278Z,725.00
2024-03-19T07:16:57.288Z,726.00
2024-03-19T07:17:57.289Z,728.00
2024-03-19T07:18:57.295Z,728.00
2024-03-19T07:19:57.362Z,726.00
2024-03-19T07:20:57.474Z,723.00
2024-03-19T07:21:57.566Z,721.00
2024-03-19T07:22:57.669Z,721.00
2024-03-19T07:23:57.753Z,722.00
2024-03-19T07:24:57.857Z,723.00
2024-03-19T07:25:57.958Z,723.00
2024-03-19T07:27:00.338Z,722.00
2024-03-19T07:27:58.043Z,720.00
2024-03-19T07:28:58.044Z,719.00
2024-03-19T07:29:58.044Z,718.00
2024-03-19T07:30:58.052Z,719.00
2024-03-19T07:31:58.044Z,721.00
2024-03-19T07:33:00.063Z,719.00
2024-03-19T07:33:58.056Z,717.00
2024-03-19T07:34:58.057Z,717.00
2024-03-19T07:35:58.040Z,716.00
2024-03-19T07:36:58.082Z,718.00
2024-03-19T07:37:58.186Z,714.00
2024-03-19T07:38:58.219Z,715.00
2024-03-19T07:39:58.232Z,712.00
2024-03-19T07:40:58.297Z,710.00
2024-03-19T07:41:58.364Z,708.00
2024-03-19T07:42:58.387Z,707.00
2024-03-19T07:44:00.461Z,706.00
2024-03-19T07:44:58.469Z,710.00
2024-03-19T07:45:58.588Z,708.00
2024-03-19T07:46:58.546Z,704.00
2024-03-19T07:47:58.605Z,703.00
2024-03-19T07:49:00.817Z,702.00
2024-03-19T07:49:58.679Z,698.00
2024-03-19T07:50:58.774Z,698.00
2024-03-19T07:51:58.857Z,700.00
2024-03-19T07:52:58.971Z,703.00
2024-03-19T07:53:59.102Z,704.00
2024-03-19T07:54:59.208Z,705.00
2024-03-19T07:55:59.243Z,705.00
2024-03-19T07:56:59.374Z,701.00
2024-03-19T07:57:59.435Z,703.00
2024-03-19T07:58:59.541Z,701.00
2024-03-19T07:59:59.684Z,697.00
2024-03-19T08:00:59.754Z,700.00
2024-03-19T08:01:59.822Z,700.00
2024-03-19T08:02:59.957Z,705.00
2024-03-19T08:04:05.521Z,704.00
2024-03-19T08:05:01.058Z,707.00
2024-03-19T08:06:00.065Z,706.00
2024-03-19T08:07:00.042Z,704.00
2024-03-19T08:08:00.053Z,702.00
2024-03-19T08:09:00.057Z,704.00
2024-03-19T08:10:00.078Z,702.00
2024-03-19T08:11:00.053Z,706.00
2024-03-19T08:12:00.151Z,702.00
2024-03-19T08:13:00.128Z,700.00
2024-03-19T08:14:00.230Z,701.00
2024-03-19T08:15:00.310Z,704.00
2024-03-19T08:16:00.459Z,707.00
2024-03-19T08:17:00.521Z,707.00
2024-03-19T08:18:00.632Z,706.00
2024-03-19T08:19:00.741Z,704.00
2024-03-19T08:20:00.841Z,702.00
2024-03-19T08:21:00.929Z,704.00
2024-03-19T08:22:01.036Z,701.00
2024-03-19T08:23:01.156Z,698.00
2024-03-19T08:24:01.227Z,694.00
2024-03-19T08:25:01.323Z,693.00
2024-03-19T08:26:01.489Z,692.00
2024-03-19T08:27:01.508Z,691.00
2024-03-19T08:28:01.612Z,693.00
2024-03-19T08:29:01.701Z,696.00
2024-03-19T08:30:01.813Z,701.00
2024-03-19T08:31:01.878Z,698.00
2024-03-19T08:32:01.984Z,698.00
2024-03-19T08:33:02.094Z,700.00
2024-03-19T08:34:02.202Z,701.00
2024-03-19T08:35:02.311Z,704.00
2024-03-19T08:36:02.433Z,702.00
2024-03-19T08:37:02.551Z,702.00
2024-03-19T08:38:02.633Z,697.00
2024-03-19T08:39:02.770Z,697.00
2024-03-19T08:40:02.877Z,698.00
2024-03-19T08:41:02.933Z,698.00
2024-03-19T08:42:05.617Z,699.00
2024-03-19T08:43:03.027Z,698.00
2024-03-19T08:44:03.034Z,695.00
2024-03-19T08:45:03.039Z,696.00
2024-03-19T08:46:03.043Z,695.00
2024-03-19T08:47:03.044Z,695.00
2024-03-19T08:48:03.034Z,696.00
2024-03-19T08:49:03.031Z,694.00
2024-03-19T08:50:03.049Z,690.00
2024-03-19T08:51:03.050Z,689.00
2024-03-19T08:52:03.050Z,690.00
2024-03-19T08:53:03.049Z,690.00
2024-03-19T08:54:03.051Z,689.00
2024-03-19T08:55:03.038Z,687.00
2024-03-19T08:56:03.071Z,688.00
2024-03-19T08:57:03.053Z,690.00
2024-03-19T08:58:03.056Z,687.00
2024-03-19T08:59:03.058Z,691.00
2024-03-19T09:00:03.045Z,690.00
2024-03-19T09:01:03.050Z,690.00
2024-03-19T09:02:03.149Z,690.00
2024-03-19T09:03:03.072Z,688.00
2024-03-19T09:04:03.063Z,686.00
2024-03-19T09:05:03.096Z,689.00
2024-03-19T09:06:03.077Z,688.00
2024-03-19T09:07:03.084Z,693.00
2024-03-19T09:08:03.089Z,690.00
2024-03-19T09:09:03.150Z,687.00
2024-03-19T09:10:03.079Z,685.00
2024-03-19T09:11:03.086Z,684.00
2024-03-19T09:12:03.077Z,683.00
2024-03-19T09:13:03.082Z,680.00
2024-03-19T09:14:03.212Z,679.00
2024-03-19T09:15:03.142Z,679.00
2024-03-19T09:16:03.250Z,678.00
2024-03-19T09:17:03.362Z,676.00
2024-03-19T09:18:03.504Z,675.00
2024-03-19T09:19:03.535Z,675.00
2024-03-19T09:20:03.631Z,676.00
2024-03-19T09:21:03.722Z,675.00
2024-03-19T09:22:03.846Z,673.00
2024-03-19T09:23:03.945Z,673.00
2024-03-19T09:24:04.049Z,671.00
2024-03-19T09:25:06.804Z,670.00
2024-03-19T09:26:04.156Z,667.00
2024-03-19T09:27:04.134Z,666.00
2024-03-19T09:28:04.132Z,663.00
2024-03-19T09:29:04.228Z,663.00
2024-03-19T09:30:04.136Z,664.00
2024-03-19T09:31:04.139Z,666.00
2024-03-19T09:32:04.190Z,666.00
2024-03-19T09:33:04.142Z,665.00
2024-03-19T09:34:04.141Z,664.00
2024-03-19T09:35:04.140Z,666.00
2024-03-19T09:36:04.146Z,667.00
2024-03-19T09:37:04.152Z,663.00
2024-03-19T09:38:04.152Z,666.00
2024-03-19T09:39:04.130Z,668.00
2024-03-19T09:40:11.737Z,687.00
2024-03-19T09:41:11.718Z,680.00
2024-03-19T09:42:11.728Z,681.00
2024-03-19T09:43:11.728Z,682.00
2024-03-19T09:44:11.759Z,682.00
2024-03-19T09:45:11.740Z,680.00
2024-03-19T09:46:11.754Z,675.00
2024-03-19T09:47:11.742Z,679.00
2024-03-19T09:48:11.755Z,676.00
2024-03-19T09:49:11.790Z,673.00
2024-03-19T09:50:11.860Z,674.00
2024-03-19T09:51:11.955Z,674.00
2024-03-19T09:52:12.042Z,670.00
2024-03-19T09:53:12.136Z,672.00
2024-03-19T09:54:12.250Z,669.00
2024-03-19T09:55:12.311Z,669.00
2024-03-19T09:56:12.413Z,668.00
2024-03-19T09:57:12.488Z,668.00
2024-03-19T09:58:12.597Z,670.00
2024-03-19T09:59:12.697Z,674.00
2024-03-19T10:00:12.779Z,672.00
2024-03-19T10:01:12.858Z,673.00
2024-03-19T10:02:12.965Z,675.00
2024-03-19T10:03:13.050Z,671.00
2024-03-19T10:04:13.145Z,673.00
2024-03-19T10:05:13.238Z,675.00
2024-03-19T10:06:13.348Z,675.00
2024-03-19T10:07:13.447Z,675.00
2024-03-19T10:08:13.571Z,672.00
2024-03-19T10:09:13.696Z,674.00
2024-03-19T10:10:13.689Z,670.00
2024-03-19T10:11:13.745Z,668.00
2024-03-19T10:12:13.857Z,671.00
2024-03-19T10:13:13.931Z,673.00
2024-03-19T10:14:14.032Z,676.00
2024-03-19T10:15:14.124Z,676.00
2024-03-19T10:16:14.218Z,679.00
2024-03-19T10:17:14.315Z,680.00
2024-03-19T10:18:14.403Z,677.00
2024-03-19T10:19:14.494Z,676.00
2024-03-19T10:20:14.598Z,677.00
2024-03-19T10:21:14.673Z,675.00
2024-03-19T10:22:14.769Z,676.00
2024-03-19T10:23:14.863Z,677.00
2024-03-19T10:24:14.969Z,675.00
2024-03-19T10:25:15.042Z,676.00
2024-03-19T10:26:15.182Z,674.00
2024-03-19T10:27:15.244Z,674.00
2024-03-19T10:28:15.425Z,672.00
2024-03-19T10:29:15.416Z,669.00
2024-03-19T10:30:15.514Z,673.00
2024-03-19T10:31:15.611Z,675.00
2024-03-19T10:32:25.131Z,674.00
2024-03-19T10:33:16.712Z,676.00
2024-03-19T10:34:15.720Z,676.00
2024-03-19T10:35:15.845Z,672.00
2024-03-19T10:36:15.716Z,672.00
2024-03-19T10:37:15.732Z,670.00
2024-03-19T10:38:25.216Z,668.00
2024-03-19T10:39:17.845Z,669.00
2024-03-19T10:40:15.741Z,668.00
2024-03-19T10:41:15.748Z,669.00
2024-03-19T10:42:15.750Z,666.00
2024-03-19T10:43:15.761Z,666.00
2024-03-19T10:44:15.760Z,663.00
2024-03-19T10:45:15.739Z,662.00
2024-03-19T10:46:15.777Z,665.00
2024-03-19T10:47:15.780Z,665.00
2024-03-19T10:48:15.839Z,667.00
2024-03-19T10:49:25.912Z,669.00
2024-03-19T10:50:15.858Z,668.00
2024-03-19T10:51:15.918Z,670.00
2024-03-19T10:52:15.859Z,671.00
2024-03-19T10:53:15.858Z,670.00
2024-03-19T10:54:15.855Z,672.00
2024-03-19T10:55:15.864Z,672.00
2024-03-19T10:56:15.860Z,669.00
2024-03-19T10:57:15.854Z,665.00
2024-03-19T10:58:15.885Z,664.00
2024-03-19T10:59:20.906Z,665.00
2024-03-19T11:00:15.875Z,665.00
2024-03-19T11:01:15.880Z,663.00
2024-03-19T11:02:15.887Z,665.00
2024-03-19T11:03:15.893Z,665.00
2024-03-19T11:04:15.896Z,666.00
2024-03-19T11:05:15.903Z,668.00
2024-03-19T11:06:15.887Z,670.00
2024-03-19T11:07:15.980Z,669.00
2024-03-19T11:08:16.068Z,668.00
2024-03-19T11:09:16.185Z,667.00
2024-03-19T11:10:16.269Z,666.00
2024-03-19T11:11:16.358Z,666.00
2024-03-19T11:12:16.485Z,665.00
2024-03-19T11:13:16.579Z,664.00
2024-03-19T11:14:26.719Z,665.00
2024-03-19T11:15:16.707Z,663.00
2024-03-19T11:16:16.744Z,665.00
2024-03-19T11:17:16.711Z,664.00
2024-03-19T11:18:16.707Z,662.00
2024-03-19T11:19:16.678Z,660.00
2024-03-19T11:20:16.680Z,660.00
2024-03-19T11:21:16.678Z,655.00
2024-03-19T11:22:16.689Z,650.00
2024-03-19T11:23:16.698Z,653.00
2024-03-19T11:24:16.703Z,654.00
2024-03-19T11:25:16.710Z,652.00
2024-03-19T11:26:16.709Z,655.00
2024-03-19T11:27:16.717Z,655.00
2024-03-19T11:28:16.723Z,650.00
2024-03-19T11:29:16.716Z,651.00
2024-03-19T11:30:16.730Z,654.00
2024-03-19T11:31:16.705Z,655.00
2024-03-19T11:32:16.714Z,656.00
2024-03-19T11:33:16.708Z,653.00
2024-03-19T11:34:16.715Z,655.00
2024-03-19T11:35:16.722Z,656.00
2024-03-19T11:36:16.736Z,655.00
2024-03-19T11:37:16.733Z,654.00
2024-03-19T11:38:16.744Z,653.00
2024-03-19T11:39:16.749Z,653.00
2024-03-19T11:40:16.737Z,649.00
2024-03-19T11:41:27.153Z,649.00
2024-03-19T11:42:17.801Z,648.00
2024-03-19T11:43:16.787Z,647.00
2024-03-19T11:44:16.796Z,646.00
2024-03-19T11:45:16.798Z,647.00
2024-03-19T11:46:16.801Z,649.00
2024-03-19T11:47:16.812Z,650.00
2024-03-19T11:48:16.811Z,651.00
2024-03-19T11:49:16.817Z,648.00
2024-03-19T11:50:16.873Z,646.00
2024-03-19T11:51:16.933Z,646.00
2024-03-19T11:52:17.042Z,647.00
2024-03-19T11:53:17.153Z,646.00
2024-03-19T11:54:17.222Z,649.00
2024-03-19T11:55:17.322Z,648.00
2024-03-19T11:56:17.428Z,647.00
2024-03-19T11:57:17.528Z,648.00
2024-03-19T11:58:17.656Z,649.00
2024-03-19T11:59:17.712Z,648.00
2024-03-19T12:00:17.918Z,649.00
2024-03-19T12:01:17.935Z,647.00
2024-03-19T12:02:18.036Z,647.00
2024-03-19T12:03:18.141Z,644.00
2024-03-19T12:04:18.212Z,644.00
2024-03-19T12:05:18.306Z,643.00
2024-03-19T12:06:18.411Z,642.00
2024-03-19T12:07:18.523Z,642.00
2024-03-19T12:08:18.582Z,645.00
2024-03-19T12:09:23.664Z,645.00
2024-03-19T12:10:18.664Z,644.00
2024-03-19T12:11:18.655Z,645.00
2024-03-19T12:12:18.698Z,646.00
2024-03-19T12:13:18.718Z,644.00
2024-03-19T12:14:18.684Z,645.00
2024-03-19T12:15:18.676Z,643.00
2024-03-19T12:16:18.683Z,643.00
2024-03-19T12:17:18.740Z,646.00
2024-03-19T12:18:18.857Z,646.00
2024-03-19T12:19:18.917Z,643.00
2024-03-19T12:20:19.016Z,643.00
2024-03-19T12:21:19.097Z,647.00
2024-03-19T12:22:20.133Z,643.00
2024-03-19T12:23:19.195Z,640.00
2024-03-19T12:24:29.302Z,641.00
2024-03-19T12:25:19.263Z,642.00
2024-03-19T12:26:19.250Z,642.00
2024-03-19T12:27:19.265Z,645.00
2024-03-19T12:28:20.151Z,642.00
2024-03-19T12:29:19.252Z,641.00
2024-03-19T12:30:19.245Z,641.00